Sunday, August 28, 2016, 4:35 AM EDT

KPTB, Petersburg, Dinwiddie County Airport

Location: Petersburg, VA, United States Lat: 37.183
Local Time: 4:35 AM EDT ( 8:35 GMT) Lon: -77.517
Time Zone: US/Eastern Elev: 193 ft

Show me the last for .
Show Decoded

2016-08-28 04:15 METAR KPTB 280815Z AUTO 00000KT 10SM OVC009 A3018 RMK AO2 =
2016-08-28 03:55 METAR KPTB 280755Z AUTO 00000KT 10SM BKN009 A3017 RMK AO2 =
2016-08-28 03:35 METAR KPTB 280735Z AUTO 00000KT 10SM OVC011 A3018 RMK AO2 =
2016-08-28 03:15 METAR KPTB 280715Z AUTO 00000KT 10SM SCT011 A3018 RMK AO2 =
2016-08-28 02:55 METAR KPTB 280655Z AUTO 00000KT 7SM CLR A3018 RMK AO2 =
2016-08-28 02:35 METAR KPTB 280635Z AUTO 00000KT 7SM CLR A3018 RMK AO2 =
2016-08-28 02:15 METAR KPTB 280615Z AUTO 00000KT 10SM CLR A3018 RMK AO2 =
2016-08-28 01:55 METAR KPTB 280555Z AUTO 00000KT 7SM CLR A3018 RMK AO2 =
2016-08-28 01:35 METAR KPTB 280535Z AUTO 00000KT 10SM CLR A3018 RMK AO2 =
2016-08-28 01:15 METAR KPTB 280515Z AUTO 00000KT 10SM CLR A3019 RMK AO2 =
2016-08-28 00:55 METAR KPTB 280455Z AUTO 00000KT 7SM CLR A3018 RMK AO2 =
2016-08-28 00:35 METAR KPTB 280435Z AUTO 00000KT 10SM CLR A3018 RMK AO2 =
2016-08-28 00:15 METAR KPTB 280415Z AUTO 00000KT 10SM CLR A3019 RMK AO2 =
2016-08-27 23:55 METAR KPTB 280355Z AUTO 00000KT 10SM CLR A3019 RMK AO2 =
2016-08-27 23:35 METAR KPTB 280335Z AUTO 00000KT 10SM CLR A3018 RMK AO2 =
2016-08-27 23:15 METAR KPTB 280315Z AUTO 00000KT 10SM CLR A3019 RMK AO2 =
2016-08-27 22:55 METAR KPTB 280255Z AUTO 00000KT 10SM CLR 21/21 A3019 RMK AO2 T02100210 =
2016-08-27 22:35 METAR KPTB 280235Z AUTO 00000KT 10SM CLR 21/21 A3019 RMK AO2 T02110209 =
2016-08-27 22:15 METAR KPTB 280215Z AUTO 00000KT 10SM CLR 22/21 A3018 RMK AO2 T02190211 =
2016-08-27 21:55 METAR KPTB 280155Z AUTO 00000KT 10SM CLR 22/21 A3018 RMK AO2 T02200213 =
2016-08-27 21:35 METAR KPTB 280135Z AUTO 00000KT 10SM CLR 23/20 A3017 RMK AO2 T02320202 =
2016-08-27 21:15 METAR KPTB 280115Z AUTO 00000KT 10SM CLR 24/20 A3016 RMK AO2 T02400200 =
2016-08-27 20:55 METAR KPTB 280055Z AUTO 08004KT 10SM CLR 26/20 A3016 RMK AO2 T02570196 =
2016-08-27 20:35 METAR KPTB 280035Z AUTO 09003KT 7SM CLR 27/20 A3015 RMK AO2 T02650199 =
2016-08-27 20:15 METAR KPTB 280015Z AUTO 10003KT 10SM CLR 27/20 A3014 RMK AO2 T02710199 =
2016-08-27 19:55 METAR KPTB 272355Z AUTO 09005KT 10SM CLR 28/19 A3013 RMK AO2 T02830193 10360
                 20282 =
2016-08-27 19:35 METAR KPTB 272335Z AUTO 07005KT 10SM CLR 30/18 A3012 RMK AO2 LTG DSNT S
                 T03040180 =
2016-08-27 19:15 METAR KPTB 272315Z AUTO 05010KT 10SM CLR 31/17 A3011 RMK AO2 T03120173 =
2016-08-27 18:55 METAR KPTB 272255Z AUTO 06010KT 10SM CLR 32/17 A3010 RMK AO2 T03210169 =
2016-08-27 18:35 METAR KPTB 272235Z AUTO 06008KT 10SM CLR 33/15 A3010 RMK AO2 T03280150 =
2016-08-27 18:15 METAR KPTB 272215Z AUTO 08007KT 10SM CLR 33/16 A3010 RMK AO2 T03320159 =
2016-08-27 17:55 METAR KPTB 272155Z AUTO 06007KT 10SM CLR 34/16 A3010 RMK AO2 T03370158 =
2016-08-27 17:35 METAR KPTB 272135Z AUTO 06007KT 10SM CLR 35/16 A3010 RMK AO2 T03450159 =
2016-08-27 17:15 METAR KPTB 272115Z AUTO 02009KT 10SM CLR 35/16 A3011 RMK AO2 T03460158 =
2016-08-27 16:55 METAR KPTB 272055Z AUTO 01007KT 10SM CLR 35/16 A3011 RMK AO2 T03510161 =
2016-08-27 16:35 METAR KPTB 272035Z AUTO 02009G16KT 10SM SCT065 35/16 A3010 RMK AO2 T03530164 =
2016-08-27 16:15 METAR KPTB 272015Z AUTO 03007KT 10SM CLR 35/16 A3011 RMK AO2 T03540164 =
2016-08-27 15:55 METAR KPTB 271955Z AUTO 05011G15KT 10SM SCT060 35/17 A3011 RMK AO2 T03500165 =
2016-08-27 15:35 METAR KPTB 271935Z AUTO 03009KT 010V070 7SM SCT060 36/17 A3012 RMK AO2 T03560166
                 =
2016-08-27 15:15 METAR KPTB 271915Z AUTO 06007KT 10SM SCT060 35/17 A3012 RMK AO2 T03540171 =
2016-08-27 14:55 METAR KPTB 271855Z AUTO 03009G16KT 10SM SCT060 36/17 A3013 RMK AO2 LTG DSNT S
                 T03560168 =
2016-08-27 14:35 METAR KPTB 271835Z AUTO 05007G15KT 010V110 10SM CLR 35/17 A3013 RMK AO2
                 T03500170 =
2016-08-27 14:15 METAR KPTB 271815Z AUTO 03010KT 10SM CLR 36/17 A3013 RMK AO2 T03550173 =
2016-08-27 13:55 METAR KPTB 271755Z AUTO 04009KT 10SM CLR 35/17 A3014 RMK AO2 T03520174 10354
                 20266 =
2016-08-27 13:35 METAR KPTB 271735Z AUTO 03005KT 10SM SCT050 35/18 A3014 RMK AO2 T03510177 =
2016-08-27 13:15 METAR KPTB 271715Z AUTO 05007KT 10SM BKN050 35/19 A3014 RMK AO2 T03540186 =
2016-08-27 12:55 METAR KPTB 271655Z AUTO 02008KT 360V060 10SM SCT060 34/19 A3015 RMK AO2
                 T03360192 =
2016-08-27 12:35 METAR KPTB 271635Z AUTO 06008KT 10SM CLR 35/19 A3015 RMK AO2 T03450192 =
2016-08-27 12:15 METAR KPTB 271615Z AUTO 03010KT 10SM SCT047 35/19 A3015 RMK AO2 T03470194 =
2016-08-27 11:55 METAR KPTB 271555Z AUTO 03009KT 10SM OVC047 33/19 A3015 RMK AO2 T03290194 =
2016-08-27 11:35 METAR KPTB 271535Z AUTO 07010KT 10SM BKN045 34/20 A3015 RMK AO2 T03380198 =
2016-08-27 11:15 METAR KPTB 271515Z AUTO 07007KT 10SM SCT043 34/20 A3015 RMK AO2 T03410201 =
2016-08-27 10:55 METAR KPTB 271455Z AUTO 07009KT 10SM SCT043 33/21 A3015 RMK AO2 T03330213 =
2016-08-27 10:35 METAR KPTB 271435Z AUTO 09007KT 10SM CLR 33/22 A3015 RMK AO2 T03280220 =
2016-08-27 10:15 METAR KPTB 271415Z AUTO 06008KT 10SM CLR 33/22 A3015 RMK AO2 T03260222 =
2016-08-27 09:55 METAR KPTB 271355Z AUTO 09008KT 10SM CLR 32/23 A3014 RMK AO2 T03230227 =
2016-08-27 09:35 METAR KPTB 271335Z AUTO 08008KT 10SM CLR 32/23 A3014 RMK AO2 T03160228 =
2016-08-27 09:15 METAR KPTB 271315Z AUTO 06006KT 10SM CLR 31/23 A3014 RMK AO2 T03090232 =
2016-08-27 08:55 METAR KPTB 271255Z AUTO 04006KT 7SM CLR 30/24 A3013 RMK AO2 T02990235 =
2016-08-27 08:35 METAR KPTB 271235Z AUTO 04006KT 7SM SCT050 29/24 A3013 RMK AO2 T02870240 =
2016-08-27 08:15 METAR KPTB 271215Z AUTO 04005KT 7SM SCT050 28/25 A3013 RMK AO2 T02780249 =
2016-08-27 07:55 METAR KPTB 271155Z AUTO 04004KT 7SM CLR 27/27 A3013 RMK AO2 T02650265 =
2016-08-27 07:35 METAR KPTB 271135Z AUTO 03004KT 5SM HZ SCT049 A3013 RMK AO2 =
2016-08-27 07:15 METAR KPTB 271115Z AUTO 03004KT 4SM HZ SCT049 SCT060 A3012 RMK AO2 =
2016-08-27 06:55 METAR KPTB 271055Z AUTO 04003KT 4SM HZ SCT049 SCT060 A3011 RMK AO2 =
2016-08-27 06:35 METAR KPTB 271035Z AUTO 00000KT 5SM HZ BKN049 BKN060 BKN070 A3011 RMK AO2 =
2016-08-27 06:15 METAR KPTB 271015Z AUTO 00000KT 7SM SCT049 SCT060 SCT090 A3011 RMK AO2 =
2016-08-27 05:55 METAR KPTB 270955Z AUTO 00000KT 7SM SCT060 SCT090 A3010 RMK AO2 =
2016-08-27 05:35 METAR KPTB 270935Z AUTO 00000KT 5SM HZ CLR A3010 RMK AO2 =
2016-08-27 05:15 METAR KPTB 270915Z AUTO 00000KT 5SM HZ CLR A3009 RMK AO2 =
2016-08-27 04:55 METAR KPTB 270855Z AUTO 00000KT 4SM HZ SCT050 A3008 RMK AO2 =

Support USWX by starting your Amazon purchase here.